Pella Municipal Airport
Tuesday 11:15 AM
Weather N/A
Temperature 75°
Dew Point 59°
Feels Like
Relative Humidity 57
%
Visibility 10
mi
Pressure 1014.6
mb
Wind Direction SE
Wind Speed 8
mph
Last Hour Precip 0.00
"
KPEA 281615Z AUTO 14007KT 10SM 24/15 A2996 RMK AO2 T02380148

Recent Observations

Time Present Weather Temp DP Feels RH% Vsby Pressure Ceiling Direction Speed Gust 1h Precip
11:15AM 75° 59° 57
%
10
mi
1014.6
mb
SE 8
mph
0.00"
KPEA 281615Z AUTO 14007KT 10SM 24/15 A2996 RMK AO2 T02380148
10:55AM 73° 59° 60
%
10
mi
1014.6
mb
ESE 6
mph
0.00"
KPEA 281555Z AUTO 11005KT 10SM 23/15 A2996 RMK AO2 T02300148
10:35AM 71° 58° 63
%
10
mi
1014.6
mb
ESE 6
mph
0.00"
KPEA 281535Z AUTO 11005KT 10SM 22/15 A2996 RMK AO2 T02190145
10:15AM 71° 58° 64
%
10
mi
1014.6
mb
ESE 8
mph
0.00"
KPEA 281515Z AUTO 12007KT 10SM 21/14 A2996 RMK AO2 T02140143
9:55AM 69° 58° 68
%
10
mi
1014.6
mb
E 5
mph
0.00"
KPEA 281455Z AUTO 10004KT 10SM 20/14 A2996 RMK AO2 T02040142
9:35AM 67° 57° 71
%
10
mi
1014.6
mb
SE 9
mph
0.00"
KPEA 281435Z AUTO 13008KT 10SM 20/14 A2996 RMK AO2 T01950140
9:15AM 65° 57° 73
%
10
mi
1014.6
mb
ESE 9
mph
0.00"
KPEA 281415Z AUTO 11008KT 10SM 19/14 A2996 RMK AO2 T01850136
8:55AM 64° 56° 77
%
10
mi
1014.6
mb
ESE 12
mph
0.00"
KPEA 281355Z AUTO 11010KT 10SM 18/13 A2996 RMK AO2 T01750134
8:35AM 63° 56° 78
%
10
mi
1014.2
mb
ESE 7
mph
0.00"
KPEA 281335Z AUTO 11006KT 10SM 17/13 A2995 RMK AO2 T01710132
8:15AM 62° 56° 80
%
10
mi
1014.2
mb
E 7
mph
0.00"
KPEA 281315Z AUTO 09006KT 10SM 17/13 A2995 RMK AO2 T01660131
7:55AM 61° 56° 82
%
10
mi
1014.2
mb
E 7
mph
0.00"
KPEA 281255Z AUTO 10006KT 10SM 16/13 A2995 RMK AO2 T01630131
7:35AM 61° 56° 84
%
10
mi
1014.2
mb
ESE 6
mph
0.00"
KPEA 281235Z AUTO 11005KT 10SM 16/13 A2995 RMK AO2 T01610134
7:15AM 61° 57° 85
%
10
mi
1013.9
mb
E 5
mph
0.00"
KPEA 281215Z AUTO 10004KT 10SM 16/14 A2994 RMK AO2 T01620136
6:55AM 62° 57° 85
%
10
mi
1013.9
mb
ESE 6
mph
0.00"
KPEA 281155Z AUTO 11005KT 10SM 17/14 A2994 RMK AO2 T01660140 10196 20166
6:35AM 63° 58° 84
%
10
mi
1013.5
mb
E 6
mph
0.00"
KPEA 281135Z AUTO 10005KT 10SM 17/14 A2993 RMK AO2 T01700142
6:15AM 63° 58° 85
%
10
mi
1013.5
mb
E 8
mph
0.00"
KPEA 281115Z AUTO 10007KT 10SM 17/15 A2993 RMK AO2 T01710145
5:55AM 63° 59° 86
%
10
mi
1013.2
mb
E 8
mph
0.00"
KPEA 281055Z AUTO 09007KT 10SM 17/15 A2992 RMK AO2 T01720148
5:35AM 64° 59° 85
%
10
mi
1013.2
mb
E 5
mph
0.00"
KPEA 281035Z AUTO 10004KT 10SM 18/15 A2992 RMK AO2 T01760150
5:15AM 64° 59° 83
%
10
mi
1013.2
mb
E 5
mph
0.00"
KPEA 281015Z AUTO 10004KT 10SM 18/15 A2992 RMK AO2 T01800151
4:55AM 65° 60° 83
%
10
mi
1012.9
mb
E 6
mph
0.00"
KPEA 280955Z AUTO 10005KT 10SM 18/15 A2991 RMK AO2 T01830154
Click here to show this page without METARs/TAFs included